sensor_id;sensor_type;location;lat;lon;timestamp;P1;durP1;ratioP1;P2;durP2;ratioP2
4839;SDS011;2434;48.486;7.964;2023-04-24T00:00:59;2.50;;;0.93;;
4839;SDS011;2434;48.486;7.964;2023-04-24T00:03:28;3.37;;;1.33;;
4839;SDS011;2434;48.486;7.964;2023-04-24T00:05:57;1.13;;;0.80;;
4839;SDS011;2434;48.486;7.964;2023-04-24T00:08:25;3.23;;;1.00;;
4839;SDS011;2434;48.486;7.964;2023-04-24T00:10:53;1.20;;;0.80;;
4839;SDS011;2434;48.486;7.964;2023-04-24T00:13:22;2.40;;;0.97;;
4839;SDS011;2434;48.486;7.964;2023-04-24T00:15:52;1.63;;;0.83;;
4839;SDS011;2434;48.486;7.964;2023-04-24T00:18:20;2.13;;;1.10;;
4839;SDS011;2434;48.486;7.964;2023-04-24T00:20:48;1.40;;;0.90;;
4839;SDS011;2434;48.486;7.964;2023-04-24T00:23:16;1.40;;;0.80;;
4839;SDS011;2434;48.486;7.964;2023-04-24T00:25:45;2.70;;;0.87;;
4839;SDS011;2434;48.486;7.964;2023-04-24T00:28:13;1.73;;;1.00;;
4839;SDS011;2434;48.486;7.964;2023-04-24T00:30:41;3.43;;;1.10;;
4839;SDS011;2434;48.486;7.964;2023-04-24T00:33:11;2.70;;;0.97;;
4839;SDS011;2434;48.486;7.964;2023-04-24T00:35:39;2.23;;;1.00;;
4839;SDS011;2434;48.486;7.964;2023-04-24T00:38:07;3.70;;;1.27;;
4839;SDS011;2434;48.486;7.964;2023-04-24T00:40:36;2.97;;;1.10;;
4839;SDS011;2434;48.486;7.964;2023-04-24T00:43:04;2.10;;;0.90;;
4839;SDS011;2434;48.486;7.964;2023-04-24T00:45:35;9.87;;;1.60;;
4839;SDS011;2434;48.486;7.964;2023-04-24T00:48:04;2.10;;;0.90;;
4839;SDS011;2434;48.486;7.964;2023-04-24T00:50:35;2.63;;;1.10;;
4839;SDS011;2434;48.486;7.964;2023-04-24T00:53:03;1.30;;;0.70;;
4839;SDS011;2434;48.486;7.964;2023-04-24T00:55:32;2.47;;;0.87;;
4839;SDS011;2434;48.486;7.964;2023-04-24T00:58:01;2.43;;;0.80;;
4839;SDS011;2434;48.486;7.964;2023-04-24T01:00:30;2.30;;;0.90;;
4839;SDS011;2434;48.486;7.964;2023-04-24T01:02:59;1.23;;;0.80;;
4839;SDS011;2434;48.486;7.964;2023-04-24T01:05:33;1.97;;;0.87;;
4839;SDS011;2434;48.486;7.964;2023-04-24T01:08:03;2.60;;;0.73;;
4839;SDS011;2434;48.486;7.964;2023-04-24T01:10:31;2.40;;;0.87;;
4839;SDS011;2434;48.486;7.964;2023-04-24T01:13:02;3.13;;;0.90;;
4839;SDS011;2434;48.486;7.964;2023-04-24T01:15:30;1.40;;;0.73;;
4839;SDS011;2434;48.486;7.964;2023-04-24T01:17:59;1.73;;;0.90;;
4839;SDS011;2434;48.486;7.964;2023-04-24T01:20:30;3.53;;;1.17;;
4839;SDS011;2434;48.486;7.964;2023-04-24T01:23:00;1.67;;;0.90;;
4839;SDS011;2434;48.486;7.964;2023-04-24T01:25:29;2.93;;;0.90;;
4839;SDS011;2434;48.486;7.964;2023-04-24T01:27:58;2.43;;;0.90;;
4839;SDS011;2434;48.486;7.964;2023-04-24T01:30:27;1.40;;;0.90;;
4839;SDS011;2434;48.486;7.964;2023-04-24T01:32:56;1.80;;;1.13;;
4839;SDS011;2434;48.486;7.964;2023-04-24T01:35:26;2.37;;;0.87;;
4839;SDS011;2434;48.486;7.964;2023-04-24T01:37:55;2.00;;;0.90;;
4839;SDS011;2434;48.486;7.964;2023-04-24T01:40:25;1.97;;;0.70;;
4839;SDS011;2434;48.486;7.964;2023-04-24T01:42:56;2.80;;;1.00;;
4839;SDS011;2434;48.486;7.964;2023-04-24T01:45:25;1.83;;;1.00;;
4839;SDS011;2434;48.486;7.964;2023-04-24T01:47:53;1.77;;;0.80;;
4839;SDS011;2434;48.486;7.964;2023-04-24T01:50:23;2.13;;;1.00;;
4839;SDS011;2434;48.486;7.964;2023-04-24T01:52:51;3.20;;;1.10;;
4839;SDS011;2434;48.486;7.964;2023-04-24T01:55:20;2.07;;;1.13;;
4839;SDS011;2434;48.486;7.964;2023-04-24T01:57:50;2.83;;;0.93;;
4839;SDS011;2434;48.486;7.964;2023-04-24T02:00:22;4.00;;;1.17;;
4839;SDS011;2434;48.486;7.964;2023-04-24T02:02:52;3.17;;;1.00;;
4839;SDS011;2434;48.486;7.964;2023-04-24T02:05:21;1.37;;;0.83;;
4839;SDS011;2434;48.486;7.964;2023-04-24T02:07:49;2.93;;;1.07;;
4839;SDS011;2434;48.486;7.964;2023-04-24T02:10:17;3.33;;;1.10;;
4839;SDS011;2434;48.486;7.964;2023-04-24T02:12:46;2.37;;;1.00;;
4839;SDS011;2434;48.486;7.964;2023-04-24T02:15:15;3.30;;;0.90;;
4839;SDS011;2434;48.486;7.964;2023-04-24T02:17:44;2.43;;;0.80;;
4839;SDS011;2434;48.486;7.964;2023-04-24T02:20:12;1.40;;;0.90;;
4839;SDS011;2434;48.486;7.964;2023-04-24T02:22:40;2.07;;;0.90;;
4839;SDS011;2434;48.486;7.964;2023-04-24T02:25:09;4.33;;;0.93;;
4839;SDS011;2434;48.486;7.964;2023-04-24T02:27:37;2.60;;;0.80;;
4839;SDS011;2434;48.486;7.964;2023-04-24T02:30:06;5.33;;;0.93;;
4839;SDS011;2434;48.486;7.964;2023-04-24T02:32:37;1.70;;;0.67;;
4839;SDS011;2434;48.486;7.964;2023-04-24T02:35:09;1.90;;;0.80;;
4839;SDS011;2434;48.486;7.964;2023-04-24T02:37:38;2.23;;;0.97;;
4839;SDS011;2434;48.486;7.964;2023-04-24T02:40:07;2.13;;;0.80;;
4839;SDS011;2434;48.486;7.964;2023-04-24T02:42:36;2.63;;;1.00;;
4839;SDS011;2434;48.486;7.964;2023-04-24T02:45:04;4.53;;;1.20;;
4839;SDS011;2434;48.486;7.964;2023-04-24T02:47:33;2.93;;;0.73;;
4839;SDS011;2434;48.486;7.964;2023-04-24T02:50:04;3.67;;;0.80;;
4839;SDS011;2434;48.486;7.964;2023-04-24T02:52:33;1.40;;;0.77;;
4839;SDS011;2434;48.486;7.964;2023-04-24T02:55:01;2.53;;;1.00;;
4839;SDS011;2434;48.486;7.964;2023-04-24T02:57:30;2.73;;;1.10;;
4839;SDS011;2434;48.486;7.964;2023-04-24T02:59:58;1.30;;;0.77;;
4839;SDS011;2434;48.486;7.964;2023-04-24T03:02:27;1.97;;;0.90;;
4839;SDS011;2434;48.486;7.964;2023-04-24T03:04:55;1.90;;;0.90;;
4839;SDS011;2434;48.486;7.964;2023-04-24T03:07:25;5.33;;;1.10;;
4839;SDS011;2434;48.486;7.964;2023-04-24T03:09:53;2.87;;;0.87;;
4839;SDS011;2434;48.486;7.964;2023-04-24T03:12:24;2.20;;;1.17;;
4839;SDS011;2434;48.486;7.964;2023-04-24T03:14:52;2.03;;;1.00;;
4839;SDS011;2434;48.486;7.964;2023-04-24T03:17:20;3.80;;;1.00;;
4839;SDS011;2434;48.486;7.964;2023-04-24T03:19:48;2.60;;;1.20;;
4839;SDS011;2434;48.486;7.964;2023-04-24T03:22:17;2.57;;;0.90;;
4839;SDS011;2434;48.486;7.964;2023-04-24T03:24:47;3.60;;;1.27;;
4839;SDS011;2434;48.486;7.964;2023-04-24T03:27:17;2.83;;;1.50;;
4839;SDS011;2434;48.486;7.964;2023-04-24T03:29:52;2.13;;;1.07;;
4839;SDS011;2434;48.486;7.964;2023-04-24T03:32:28;2.40;;;1.27;;
4839;SDS011;2434;48.486;7.964;2023-04-24T03:34:59;3.17;;;1.00;;
4839;SDS011;2434;48.486;7.964;2023-04-24T03:37:27;3.60;;;1.03;;
4839;SDS011;2434;48.486;7.964;2023-04-24T03:40:29;1.43;;;1.00;;
4839;SDS011;2434;48.486;7.964;2023-04-24T03:43:00;2.53;;;1.20;;
4839;SDS011;2434;48.486;7.964;2023-04-24T03:45:29;1.20;;;0.70;;
4839;SDS011;2434;48.486;7.964;2023-04-24T03:47:57;2.57;;;1.00;;
4839;SDS011;2434;48.486;7.964;2023-04-24T03:50:25;1.30;;;0.80;;
4839;SDS011;2434;48.486;7.964;2023-04-24T03:52:56;2.83;;;1.00;;
4839;SDS011;2434;48.486;7.964;2023-04-24T03:55:35;1.90;;;1.00;;
4839;SDS011;2434;48.486;7.964;2023-04-24T03:58:03;3.87;;;1.10;;
4839;SDS011;2434;48.486;7.964;2023-04-24T04:00:32;1.73;;;0.90;;
4839;SDS011;2434;48.486;7.964;2023-04-24T04:03:27;2.83;;;1.17;;
4839;SDS011;2434;48.486;7.964;2023-04-24T04:05:56;3.70;;;1.40;;
4839;SDS011;2434;48.486;7.964;2023-04-24T04:08:25;2.33;;;1.40;;
4839;SDS011;2434;48.486;7.964;2023-04-24T04:10:55;5.97;;;1.10;;
4839;SDS011;2434;48.486;7.964;2023-04-24T04:13:23;1.83;;;1.13;;
4839;SDS011;2434;48.486;7.964;2023-04-24T04:15:51;3.90;;;1.13;;
4839;SDS011;2434;48.486;7.964;2023-04-24T04:18:19;4.17;;;1.37;;
4839;SDS011;2434;48.486;7.964;2023-04-24T04:20:48;2.60;;;1.50;;
4839;SDS011;2434;48.486;7.964;2023-04-24T04:23:16;2.50;;;1.13;;
4839;SDS011;2434;48.486;7.964;2023-04-24T04:25:56;4.80;;;2.03;;
4839;SDS011;2434;48.486;7.964;2023-04-24T04:28:36;2.57;;;1.30;;
4839;SDS011;2434;48.486;7.964;2023-04-24T04:31:05;5.80;;;1.60;;
4839;SDS011;2434;48.486;7.964;2023-04-24T04:33:35;2.07;;;1.30;;
4839;SDS011;2434;48.486;7.964;2023-04-24T04:36:06;2.70;;;1.00;;
4839;SDS011;2434;48.486;7.964;2023-04-24T04:38:40;4.13;;;1.83;;
4839;SDS011;2434;48.486;7.964;2023-04-24T04:41:40;3.57;;;1.70;;
4839;SDS011;2434;48.486;7.964;2023-04-24T04:44:09;3.80;;;1.70;;
4839;SDS011;2434;48.486;7.964;2023-04-24T04:46:39;3.20;;;1.97;;
4839;SDS011;2434;48.486;7.964;2023-04-24T04:49:29;2.60;;;1.50;;
4839;SDS011;2434;48.486;7.964;2023-04-24T04:51:58;2.43;;;1.47;;
4839;SDS011;2434;48.486;7.964;2023-04-24T04:54:27;6.07;;;1.80;;
4839;SDS011;2434;48.486;7.964;2023-04-24T04:56:57;3.80;;;1.70;;
4839;SDS011;2434;48.486;7.964;2023-04-24T04:59:29;3.50;;;1.60;;
4839;SDS011;2434;48.486;7.964;2023-04-24T05:02:03;6.50;;;2.07;;
4839;SDS011;2434;48.486;7.964;2023-04-24T05:04:32;5.10;;;1.70;;
4839;SDS011;2434;48.486;7.964;2023-04-24T05:07:01;4.40;;;1.63;;
4839;SDS011;2434;48.486;7.964;2023-04-24T05:09:32;3.30;;;2.20;;
4839;SDS011;2434;48.486;7.964;2023-04-24T05:12:05;2.93;;;1.80;;
4839;SDS011;2434;48.486;7.964;2023-04-24T05:14:40;3.30;;;1.53;;
4839;SDS011;2434;48.486;7.964;2023-04-24T05:17:10;3.80;;;1.60;;
4839;SDS011;2434;48.486;7.964;2023-04-24T05:19:39;4.63;;;1.50;;
4839;SDS011;2434;48.486;7.964;2023-04-24T05:22:08;2.67;;;1.67;;
4839;SDS011;2434;48.486;7.964;2023-04-24T05:24:46;7.80;;;1.90;;
4839;SDS011;2434;48.486;7.964;2023-04-24T05:27:38;3.60;;;2.13;;
4839;SDS011;2434;48.486;7.964;2023-04-24T05:30:13;3.73;;;1.97;;
4839;SDS011;2434;48.486;7.964;2023-04-24T05:32:41;3.80;;;2.00;;
4839;SDS011;2434;48.486;7.964;2023-04-24T05:35:10;2.63;;;1.93;;
4839;SDS011;2434;48.486;7.964;2023-04-24T05:37:38;2.87;;;2.47;;
4839;SDS011;2434;48.486;7.964;2023-04-24T05:40:08;2.80;;;2.10;;
4839;SDS011;2434;48.486;7.964;2023-04-24T05:42:38;3.00;;;2.17;;
4839;SDS011;2434;48.486;7.964;2023-04-24T05:45:07;2.43;;;1.83;;
4839;SDS011;2434;48.486;7.964;2023-04-24T05:47:38;2.00;;;1.80;;
4839;SDS011;2434;48.486;7.964;2023-04-24T05:50:06;3.30;;;1.90;;
4839;SDS011;2434;48.486;7.964;2023-04-24T05:52:35;4.43;;;2.43;;
4839;SDS011;2434;48.486;7.964;2023-04-24T05:55:11;3.77;;;2.47;;
4839;SDS011;2434;48.486;7.964;2023-04-24T05:57:42;4.37;;;2.67;;
4839;SDS011;2434;48.486;7.964;2023-04-24T06:00:11;4.67;;;2.73;;
4839;SDS011;2434;48.486;7.964;2023-04-24T06:02:47;3.30;;;2.23;;
4839;SDS011;2434;48.486;7.964;2023-04-24T06:05:17;4.37;;;2.90;;
4839;SDS011;2434;48.486;7.964;2023-04-24T06:07:45;4.70;;;2.27;;
4839;SDS011;2434;48.486;7.964;2023-04-24T06:10:15;2.90;;;2.10;;
4839;SDS011;2434;48.486;7.964;2023-04-24T06:12:45;4.43;;;2.40;;
4839;SDS011;2434;48.486;7.964;2023-04-24T06:15:16;5.10;;;2.30;;
4839;SDS011;2434;48.486;7.964;2023-04-24T06:17:54;5.03;;;2.80;;
4839;SDS011;2434;48.486;7.964;2023-04-24T06:20:24;2.57;;;2.20;;
4839;SDS011;2434;48.486;7.964;2023-04-24T06:22:53;2.90;;;2.00;;
4839;SDS011;2434;48.486;7.964;2023-04-24T06:25:24;3.57;;;1.93;;
4839;SDS011;2434;48.486;7.964;2023-04-24T06:27:54;4.33;;;2.10;;
4839;SDS011;2434;48.486;7.964;2023-04-24T06:30:23;3.67;;;1.97;;
4839;SDS011;2434;48.486;7.964;2023-04-24T06:32:51;3.90;;;2.00;;
4839;SDS011;2434;48.486;7.964;2023-04-24T06:35:21;3.50;;;2.23;;
4839;SDS011;2434;48.486;7.964;2023-04-24T06:37:49;4.63;;;2.17;;
4839;SDS011;2434;48.486;7.964;2023-04-24T06:40:19;2.73;;;2.03;;
4839;SDS011;2434;48.486;7.964;2023-04-24T06:42:48;2.90;;;2.23;;
4839;SDS011;2434;48.486;7.964;2023-04-24T06:45:18;3.53;;;2.50;;
4839;SDS011;2434;48.486;7.964;2023-04-24T06:47:46;5.37;;;2.20;;
4839;SDS011;2434;48.486;7.964;2023-04-24T06:50:14;3.67;;;1.67;;
4839;SDS011;2434;48.486;7.964;2023-04-24T06:52:43;7.17;;;2.27;;
4839;SDS011;2434;48.486;7.964;2023-04-24T06:55:11;4.53;;;1.90;;
4839;SDS011;2434;48.486;7.964;2023-04-24T06:57:39;4.60;;;2.47;;
4839;SDS011;2434;48.486;7.964;2023-04-24T07:00:08;4.13;;;2.30;;
4839;SDS011;2434;48.486;7.964;2023-04-24T07:02:39;2.70;;;1.80;;
4839;SDS011;2434;48.486;7.964;2023-04-24T07:05:07;2.60;;;2.13;;
4839;SDS011;2434;48.486;7.964;2023-04-24T07:07:36;5.00;;;2.40;;
4839;SDS011;2434;48.486;7.964;2023-04-24T07:10:07;5.40;;;2.13;;
4839;SDS011;2434;48.486;7.964;2023-04-24T07:12:35;2.50;;;1.77;;
4839;SDS011;2434;48.486;7.964;2023-04-24T07:15:04;4.30;;;2.50;;
4839;SDS011;2434;48.486;7.964;2023-04-24T07:17:34;4.67;;;2.20;;
4839;SDS011;2434;48.486;7.964;2023-04-24T07:20:07;3.80;;;2.10;;
4839;SDS011;2434;48.486;7.964;2023-04-24T07:22:37;5.60;;;1.83;;
4839;SDS011;2434;48.486;7.964;2023-04-24T07:25:06;3.50;;;2.37;;
4839;SDS011;2434;48.486;7.964;2023-04-24T07:27:35;2.40;;;1.43;;
4839;SDS011;2434;48.486;7.964;2023-04-24T07:30:04;4.30;;;1.80;;
4839;SDS011;2434;48.486;7.964;2023-04-24T07:32:33;5.37;;;2.00;;
4839;SDS011;2434;48.486;7.964;2023-04-24T07:35:02;3.63;;;2.10;;
4839;SDS011;2434;48.486;7.964;2023-04-24T07:37:31;3.10;;;1.80;;
4839;SDS011;2434;48.486;7.964;2023-04-24T07:40:00;2.90;;;2.00;;
4839;SDS011;2434;48.486;7.964;2023-04-24T07:42:28;4.60;;;1.63;;
4839;SDS011;2434;48.486;7.964;2023-04-24T07:44:57;4.47;;;2.33;;
4839;SDS011;2434;48.486;7.964;2023-04-24T07:47:26;2.83;;;1.77;;
4839;SDS011;2434;48.486;7.964;2023-04-24T07:49:54;6.50;;;1.53;;
4839;SDS011;2434;48.486;7.964;2023-04-24T07:52:22;2.70;;;1.90;;
4839;SDS011;2434;48.486;7.964;2023-04-24T07:54:52;2.43;;;1.47;;
4839;SDS011;2434;48.486;7.964;2023-04-24T07:57:24;6.70;;;1.87;;
4839;SDS011;2434;48.486;7.964;2023-04-24T07:59:53;3.00;;;1.67;;
4839;SDS011;2434;48.486;7.964;2023-04-24T08:02:21;5.07;;;1.40;;
4839;SDS011;2434;48.486;7.964;2023-04-24T08:04:53;5.67;;;1.70;;
4839;SDS011;2434;48.486;7.964;2023-04-24T08:07:23;3.33;;;1.70;;
4839;SDS011;2434;48.486;7.964;2023-04-24T08:09:53;3.20;;;1.50;;
4839;SDS011;2434;48.486;7.964;2023-04-24T08:12:21;2.40;;;1.30;;
4839;SDS011;2434;48.486;7.964;2023-04-24T08:14:49;4.20;;;1.60;;
4839;SDS011;2434;48.486;7.964;2023-04-24T08:17:17;5.33;;;1.20;;
4839;SDS011;2434;48.486;7.964;2023-04-24T08:19:45;4.60;;;1.57;;
4839;SDS011;2434;48.486;7.964;2023-04-24T08:22:15;9.27;;;1.73;;
4839;SDS011;2434;48.486;7.964;2023-04-24T08:24:43;5.03;;;1.63;;
4839;SDS011;2434;48.486;7.964;2023-04-24T08:27:12;2.23;;;1.13;;
4839;SDS011;2434;48.486;7.964;2023-04-24T08:29:41;3.53;;;1.53;;
4839;SDS011;2434;48.486;7.964;2023-04-24T08:32:09;3.93;;;1.80;;
4839;SDS011;2434;48.486;7.964;2023-04-24T08:34:37;5.93;;;1.90;;
4839;SDS011;2434;48.486;7.964;2023-04-24T08:37:05;3.17;;;1.80;;
4839;SDS011;2434;48.486;7.964;2023-04-24T08:39:33;3.93;;;1.53;;
4839;SDS011;2434;48.486;7.964;2023-04-24T08:42:02;2.03;;;1.33;;
4839;SDS011;2434;48.486;7.964;2023-04-24T08:44:36;3.30;;;1.80;;
4839;SDS011;2434;48.486;7.964;2023-04-24T08:47:04;3.87;;;1.20;;
4839;SDS011;2434;48.486;7.964;2023-04-24T08:49:33;3.80;;;1.40;;
4839;SDS011;2434;48.486;7.964;2023-04-24T08:52:04;2.53;;;1.40;;
4839;SDS011;2434;48.486;7.964;2023-04-24T08:54:35;2.87;;;1.70;;
4839;SDS011;2434;48.486;7.964;2023-04-24T08:57:04;2.97;;;1.40;;
4839;SDS011;2434;48.486;7.964;2023-04-24T08:59:39;5.73;;;1.50;;
4839;SDS011;2434;48.486;7.964;2023-04-24T09:02:09;2.10;;;1.20;;
4839;SDS011;2434;48.486;7.964;2023-04-24T09:04:38;4.40;;;1.80;;
4839;SDS011;2434;48.486;7.964;2023-04-24T09:07:08;2.80;;;1.50;;
4839;SDS011;2434;48.486;7.964;2023-04-24T09:09:37;5.10;;;1.13;;
4839;SDS011;2434;48.486;7.964;2023-04-24T09:12:07;2.33;;;1.30;;
4839;SDS011;2434;48.486;7.964;2023-04-24T09:14:36;3.37;;;1.10;;
4839;SDS011;2434;48.486;7.964;2023-04-24T09:17:10;3.13;;;1.17;;
4839;SDS011;2434;48.486;7.964;2023-04-24T09:19:39;1.93;;;1.50;;
4839;SDS011;2434;48.486;7.964;2023-04-24T09:22:08;2.50;;;1.57;;
4839;SDS011;2434;48.486;7.964;2023-04-24T09:24:37;4.87;;;1.40;;
4839;SDS011;2434;48.486;7.964;2023-04-24T09:27:06;1.30;;;0.90;;
4839;SDS011;2434;48.486;7.964;2023-04-24T09:29:36;2.37;;;1.70;;
4839;SDS011;2434;48.486;7.964;2023-04-24T09:32:19;2.57;;;1.10;;
4839;SDS011;2434;48.486;7.964;2023-04-24T09:34:49;3.13;;;1.40;;
4839;SDS011;2434;48.486;7.964;2023-04-24T09:37:27;5.63;;;1.50;;
4839;SDS011;2434;48.486;7.964;2023-04-24T09:42:40;1.80;;;1.40;;
4839;SDS011;2434;48.486;7.964;2023-04-24T09:45:12;2.07;;;1.30;;
4839;SDS011;2434;48.486;7.964;2023-04-24T09:47:43;2.27;;;0.97;;
4839;SDS011;2434;48.486;7.964;2023-04-24T09:50:14;4.27;;;1.60;;
4839;SDS011;2434;48.486;7.964;2023-04-24T09:52:47;3.33;;;1.50;;
4839;SDS011;2434;48.486;7.964;2023-04-24T09:55:24;6.33;;;1.40;;
4839;SDS011;2434;48.486;7.964;2023-04-24T09:57:53;3.40;;;1.43;;
4839;SDS011;2434;48.486;7.964;2023-04-24T10:00:23;5.17;;;1.50;;
4839;SDS011;2434;48.486;7.964;2023-04-24T10:02:58;2.27;;;0.90;;
4839;SDS011;2434;48.486;7.964;2023-04-24T10:05:28;3.13;;;1.00;;
4839;SDS011;2434;48.486;7.964;2023-04-24T10:07:59;5.60;;;2.00;;
4839;SDS011;2434;48.486;7.964;2023-04-24T10:10:29;6.83;;;1.93;;
4839;SDS011;2434;48.486;7.964;2023-04-24T10:12:58;2.93;;;1.60;;
4839;SDS011;2434;48.486;7.964;2023-04-24T10:15:27;3.37;;;1.50;;
4839;SDS011;2434;48.486;7.964;2023-04-24T10:17:57;3.57;;;1.30;;
4839;SDS011;2434;48.486;7.964;2023-04-24T10:20:27;2.67;;;1.40;;
4839;SDS011;2434;48.486;7.964;2023-04-24T10:22:57;4.00;;;1.50;;
4839;SDS011;2434;48.486;7.964;2023-04-24T10:25:27;3.00;;;1.60;;
4839;SDS011;2434;48.486;7.964;2023-04-24T10:27:57;1.60;;;1.10;;
4839;SDS011;2434;48.486;7.964;2023-04-24T10:30:26;2.10;;;1.30;;
4839;SDS011;2434;48.486;7.964;2023-04-24T10:32:56;2.47;;;1.30;;
4839;SDS011;2434;48.486;7.964;2023-04-24T10:35:25;4.70;;;1.40;;
4839;SDS011;2434;48.486;7.964;2023-04-24T10:37:54;2.90;;;1.43;;
4839;SDS011;2434;48.486;7.964;2023-04-24T10:40:26;3.43;;;1.83;;
4839;SDS011;2434;48.486;7.964;2023-04-24T10:42:55;5.80;;;1.60;;
4839;SDS011;2434;48.486;7.964;2023-04-24T10:45:24;1.70;;;1.23;;
4839;SDS011;2434;48.486;7.964;2023-04-24T10:47:56;2.70;;;1.40;;
4839;SDS011;2434;48.486;7.964;2023-04-24T10:50:29;2.00;;;1.17;;
4839;SDS011;2434;48.486;7.964;2023-04-24T10:53:12;1.87;;;1.10;;
4839;SDS011;2434;48.486;7.964;2023-04-24T10:55:42;2.80;;;1.27;;
4839;SDS011;2434;48.486;7.964;2023-04-24T10:58:12;1.60;;;1.07;;
4839;SDS011;2434;48.486;7.964;2023-04-24T11:00:41;3.93;;;1.50;;
4839;SDS011;2434;48.486;7.964;2023-04-24T11:03:24;1.83;;;1.30;;
4839;SDS011;2434;48.486;7.964;2023-04-24T11:05:59;3.23;;;1.00;;
4839;SDS011;2434;48.486;7.964;2023-04-24T11:08:29;1.87;;;0.90;;
4839;SDS011;2434;48.486;7.964;2023-04-24T11:11:04;1.83;;;1.07;;
4839;SDS011;2434;48.486;7.964;2023-04-24T11:16:35;3.43;;;2.03;;
4839;SDS011;2434;48.486;7.964;2023-04-24T11:19:06;3.00;;;1.83;;
4839;SDS011;2434;48.486;7.964;2023-04-24T11:21:40;2.37;;;1.90;;
4839;SDS011;2434;48.486;7.964;2023-04-24T11:24:26;2.33;;;1.23;;
4839;SDS011;2434;48.486;7.964;2023-04-24T11:26:56;2.73;;;1.90;;
4839;SDS011;2434;48.486;7.964;2023-04-24T11:29:44;3.40;;;1.60;;
4839;SDS011;2434;48.486;7.964;2023-04-24T11:32:15;2.67;;;1.50;;
4839;SDS011;2434;48.486;7.964;2023-04-24T11:34:46;3.00;;;1.60;;
4839;SDS011;2434;48.486;7.964;2023-04-24T11:37:16;4.60;;;1.90;;
4839;SDS011;2434;48.486;7.964;2023-04-24T11:39:44;2.50;;;1.90;;
4839;SDS011;2434;48.486;7.964;2023-04-24T11:42:14;3.63;;;1.50;;
4839;SDS011;2434;48.486;7.964;2023-04-24T11:44:43;2.57;;;1.73;;
4839;SDS011;2434;48.486;7.964;2023-04-24T11:47:14;3.30;;;2.30;;
4839;SDS011;2434;48.486;7.964;2023-04-24T11:49:42;2.53;;;1.80;;
4839;SDS011;2434;48.486;7.964;2023-04-24T11:52:10;2.97;;;1.73;;
4839;SDS011;2434;48.486;7.964;2023-04-24T11:54:47;2.70;;;1.70;;
4839;SDS011;2434;48.486;7.964;2023-04-24T11:57:18;4.50;;;1.83;;
4839;SDS011;2434;48.486;7.964;2023-04-24T11:59:48;2.67;;;1.60;;
4839;SDS011;2434;48.486;7.964;2023-04-24T12:02:20;3.60;;;1.83;;
4839;SDS011;2434;48.486;7.964;2023-04-24T12:04:50;4.27;;;1.20;;
4839;SDS011;2434;48.486;7.964;2023-04-24T12:07:19;3.13;;;1.40;;
4839;SDS011;2434;48.486;7.964;2023-04-24T12:09:54;2.10;;;1.40;;
4839;SDS011;2434;48.486;7.964;2023-04-24T12:12:25;3.13;;;1.90;;
4839;SDS011;2434;48.486;7.964;2023-04-24T12:14:55;7.03;;;1.93;;
4839;SDS011;2434;48.486;7.964;2023-04-24T12:17:25;4.67;;;1.77;;
4839;SDS011;2434;48.486;7.964;2023-04-24T12:19:58;2.23;;;1.33;;
4839;SDS011;2434;48.486;7.964;2023-04-24T12:22:28;1.63;;;1.30;;
4839;SDS011;2434;48.486;7.964;2023-04-24T12:25:13;2.37;;;1.70;;
4839;SDS011;2434;48.486;7.964;2023-04-24T12:27:42;2.03;;;1.40;;
4839;SDS011;2434;48.486;7.964;2023-04-24T12:30:12;2.47;;;1.40;;
4839;SDS011;2434;48.486;7.964;2023-04-24T12:32:41;4.93;;;1.33;;
4839;SDS011;2434;48.486;7.964;2023-04-24T12:35:10;5.30;;;1.50;;
4839;SDS011;2434;48.486;7.964;2023-04-24T12:37:41;6.03;;;1.90;;
4839;SDS011;2434;48.486;7.964;2023-04-24T12:40:14;7.20;;;2.37;;
4839;SDS011;2434;48.486;7.964;2023-04-24T12:42:43;2.90;;;1.60;;
4839;SDS011;2434;48.486;7.964;2023-04-24T12:45:13;4.27;;;1.80;;
4839;SDS011;2434;48.486;7.964;2023-04-24T12:47:42;5.00;;;1.90;;
4839;SDS011;2434;48.486;7.964;2023-04-24T12:50:12;5.63;;;1.50;;
4839;SDS011;2434;48.486;7.964;2023-04-24T12:52:40;2.17;;;1.37;;
4839;SDS011;2434;48.486;7.964;2023-04-24T12:55:09;1.80;;;1.53;;
4839;SDS011;2434;48.486;7.964;2023-04-24T12:57:40;3.97;;;1.70;;
4839;SDS011;2434;48.486;7.964;2023-04-24T13:00:08;3.10;;;1.73;;
4839;SDS011;2434;48.486;7.964;2023-04-24T13:02:37;5.50;;;1.63;;
4839;SDS011;2434;48.486;7.964;2023-04-24T13:05:06;2.83;;;1.80;;
4839;SDS011;2434;48.486;7.964;2023-04-24T13:07:34;3.60;;;2.27;;
4839;SDS011;2434;48.486;7.964;2023-04-24T13:10:03;2.63;;;1.50;;
4839;SDS011;2434;48.486;7.964;2023-04-24T13:12:32;1.93;;;1.50;;
4839;SDS011;2434;48.486;7.964;2023-04-24T13:15:02;2.40;;;1.40;;
4839;SDS011;2434;48.486;7.964;2023-04-24T13:17:30;3.13;;;1.60;;
4839;SDS011;2434;48.486;7.964;2023-04-24T13:19:59;3.43;;;1.83;;
4839;SDS011;2434;48.486;7.964;2023-04-24T13:22:27;4.43;;;1.83;;
4839;SDS011;2434;48.486;7.964;2023-04-24T13:24:56;2.50;;;1.57;;
4839;SDS011;2434;48.486;7.964;2023-04-24T13:27:24;2.00;;;1.53;;
4839;SDS011;2434;48.486;7.964;2023-04-24T13:29:52;3.80;;;2.20;;
4839;SDS011;2434;48.486;7.964;2023-04-24T13:32:22;1.57;;;1.40;;
4839;SDS011;2434;48.486;7.964;2023-04-24T13:34:50;3.87;;;2.33;;
4839;SDS011;2434;48.486;7.964;2023-04-24T13:37:18;3.33;;;2.20;;
4839;SDS011;2434;48.486;7.964;2023-04-24T13:39:47;4.27;;;2.30;;
4839;SDS011;2434;48.486;7.964;2023-04-24T13:42:17;2.33;;;1.73;;
4839;SDS011;2434;48.486;7.964;2023-04-24T13:44:46;14.93;;;1.90;;
4839;SDS011;2434;48.486;7.964;2023-04-24T13:47:14;1.97;;;1.70;;
4839;SDS011;2434;48.486;7.964;2023-04-24T13:49:44;3.23;;;1.50;;
4839;SDS011;2434;48.486;7.964;2023-04-24T13:52:12;2.60;;;1.70;;
4839;SDS011;2434;48.486;7.964;2023-04-24T13:54:41;5.00;;;1.77;;
4839;SDS011;2434;48.486;7.964;2023-04-24T13:57:09;2.80;;;1.67;;
4839;SDS011;2434;48.486;7.964;2023-04-24T13:59:38;3.53;;;1.80;;
4839;SDS011;2434;48.486;7.964;2023-04-24T14:02:06;2.27;;;2.00;;
4839;SDS011;2434;48.486;7.964;2023-04-24T14:04:34;5.83;;;2.07;;
4839;SDS011;2434;48.486;7.964;2023-04-24T14:07:04;3.03;;;1.90;;
4839;SDS011;2434;48.486;7.964;2023-04-24T14:09:34;2.40;;;1.90;;
4839;SDS011;2434;48.486;7.964;2023-04-24T14:12:02;2.40;;;1.40;;
4839;SDS011;2434;48.486;7.964;2023-04-24T14:14:30;1.93;;;1.63;;
4839;SDS011;2434;48.486;7.964;2023-04-24T14:16:59;1.40;;;1.30;;
4839;SDS011;2434;48.486;7.964;2023-04-24T14:19:27;2.97;;;1.63;;
4839;SDS011;2434;48.486;7.964;2023-04-24T14:21:55;2.37;;;1.43;;
4839;SDS011;2434;48.486;7.964;2023-04-24T14:24:26;3.17;;;1.70;;
4839;SDS011;2434;48.486;7.964;2023-04-24T14:26:54;3.93;;;1.90;;
4839;SDS011;2434;48.486;7.964;2023-04-24T14:29:22;5.90;;;1.60;;
4839;SDS011;2434;48.486;7.964;2023-04-24T14:31:52;8.50;;;1.90;;
4839;SDS011;2434;48.486;7.964;2023-04-24T14:34:20;3.43;;;1.70;;
4839;SDS011;2434;48.486;7.964;2023-04-24T14:36:48;3.63;;;1.50;;
4839;SDS011;2434;48.486;7.964;2023-04-24T14:39:16;2.30;;;1.80;;
4839;SDS011;2434;48.486;7.964;2023-04-24T14:41:46;2.77;;;1.80;;
4839;SDS011;2434;48.486;7.964;2023-04-24T14:44:14;2.10;;;1.50;;
4839;SDS011;2434;48.486;7.964;2023-04-24T14:46:42;2.50;;;1.63;;
4839;SDS011;2434;48.486;7.964;2023-04-24T14:49:11;2.00;;;1.50;;
4839;SDS011;2434;48.486;7.964;2023-04-24T14:51:39;2.83;;;1.77;;
4839;SDS011;2434;48.486;7.964;2023-04-24T14:54:07;2.30;;;1.40;;
4839;SDS011;2434;48.486;7.964;2023-04-24T14:56:35;5.20;;;1.43;;
4839;SDS011;2434;48.486;7.964;2023-04-24T14:59:08;5.90;;;1.50;;
4839;SDS011;2434;48.486;7.964;2023-04-24T15:01:36;1.70;;;1.23;;
4839;SDS011;2434;48.486;7.964;2023-04-24T15:04:04;1.30;;;1.17;;
4839;SDS011;2434;48.486;7.964;2023-04-24T15:06:33;5.13;;;1.30;;
4839;SDS011;2434;48.486;7.964;2023-04-24T15:09:01;3.83;;;1.30;;
4839;SDS011;2434;48.486;7.964;2023-04-24T15:11:30;2.20;;;1.30;;
4839;SDS011;2434;48.486;7.964;2023-04-24T15:13:58;2.93;;;1.60;;
4839;SDS011;2434;48.486;7.964;2023-04-24T15:16:27;3.03;;;1.63;;
4839;SDS011;2434;48.486;7.964;2023-04-24T15:18:55;1.67;;;1.30;;
4839;SDS011;2434;48.486;7.964;2023-04-24T15:21:24;4.60;;;1.57;;
4839;SDS011;2434;48.486;7.964;2023-04-24T15:23:52;2.83;;;1.70;;
4839;SDS011;2434;48.486;7.964;2023-04-24T15:26:20;3.37;;;1.70;;
4839;SDS011;2434;48.486;7.964;2023-04-24T15:28:49;2.33;;;1.40;;
4839;SDS011;2434;48.486;7.964;2023-04-24T15:31:18;4.57;;;1.77;;
4839;SDS011;2434;48.486;7.964;2023-04-24T15:33:48;2.93;;;1.73;;
4839;SDS011;2434;48.486;7.964;2023-04-24T15:36:17;4.23;;;1.80;;
4839;SDS011;2434;48.486;7.964;2023-04-24T15:38:45;2.10;;;1.50;;